Map

Track Data

SID SEASON NUMBER BASIN SUBBASIN NAME ISO_TIME NATURE LAT LON WMO_WIND WMO_PRES WMO_AGENCY TRACK_TYPE DIST2LAND LANDFALL IFLAG USA_AGENCY USA_ATCF_ID USA_LAT USA_LON USA_RECORD USA_STATUS USA_WIND USA_PRES USA_SSHS USA_R34_NE USA_R34_SE USA_R34_SW USA_R34_NW USA_R50_NE USA_R50_SE USA_R50_SW USA_R50_NW USA_R64_NE USA_R64_SE USA_R64_SW USA_R64_NW USA_POCI USA_ROCI USA_RMW USA_EYE TOKYO_LAT TOKYO_LON TOKYO_GRADE TOKYO_WIND TOKYO_PRES TOKYO_R50_DIR TOKYO_R50_LONG TOKYO_R50_SHORT TOKYO_R30_DIR TOKYO_R30_LONG TOKYO_R30_SHORT TOKYO_LAND CMA_LAT CMA_LON CMA_CAT CMA_WIND CMA_PRES HKO_LAT HKO_LON HKO_CAT HKO_WIND HKO_PRES NEWDELHI_LAT NEWDELHI_LON NEWDELHI_GRADE NEWDELHI_WIND NEWDELHI_PRES NEWDELHI_CI NEWDELHI_DP NEWDELHI_POCI REUNION_LAT REUNION_LON REUNION_TYPE REUNION_WIND REUNION_PRES REUNION_TNUM REUNION_CI REUNION_RMW REUNION_R34_NE REUNION_R34_SE REUNION_R34_SW REUNION_R34_NW REUNION_R50_NE REUNION_R50_SE REUNION_R50_SW REUNION_R50_NW REUNION_R64_NE REUNION_R64_SE REUNION_R64_SW REUNION_R64_NW BOM_LAT BOM_LON BOM_TYPE BOM_WIND BOM_PRES BOM_TNUM BOM_CI BOM_RMW BOM_R34_NE BOM_R34_SE BOM_R34_SW BOM_R34_NW BOM_R50_NE BOM_R50_SE BOM_R50_SW BOM_R50_NW BOM_R64_NE BOM_R64_SE BOM_R64_SW BOM_R64_NW BOM_ROCI BOM_POCI BOM_EYE BOM_POS_METHOD BOM_PRES_METHOD NADI_LAT NADI_LON NADI_CAT NADI_WIND NADI_PRES WELLINGTON_LAT WELLINGTON_LON WELLINGTON_WIND WELLINGTON_PRES DS824_LAT DS824_LON DS824_STAGE DS824_WIND DS824_PRES TD9636_LAT TD9636_LON TD9636_STAGE TD9636_WIND TD9636_PRES TD9635_LAT TD9635_LON TD9635_WIND TD9635_PRES TD9635_ROCI NEUMANN_LAT NEUMANN_LON NEUMANN_CLASS NEUMANN_WIND NEUMANN_PRES MLC_LAT MLC_LON MLC_CLASS MLC_WIND MLC_PRES USA_GUST BOM_GUST BOM_GUST_PER REUNION_GUST REUNION_GUST_PER USA_SEAHGT USA_SEARAD_NE USA_SEARAD_SE USA_SEARAD_SW USA_SEARAD_NW STORM_SPEED STORM_DIR
1964064S13064 1964 17 SI MM HARRIET 1964-03-04 06:00:00 TS -13.5000 63.7000 main 976 929 O________OO___ jtwc_sh SH221964 -13.5000 63.7000 -1 -13.5000 63.7000 TC 25 -13.5000 63.7000 7 8 224
1964064S13064 1964 17 SI MM HARRIET 1964-03-04 09:00:00 TS -13.8016 63.4046 main 929 893 P________PP___ SH221964 -13.8101 63.4152 -1 -13.8101 63.4152 TC 25 -13.7846 63.3834 7 8 245
1964064S13064 1964 17 SI MM HARRIET 1964-03-04 12:00:00 TS -13.8541 62.9236 reunion main 887 852 O____O___OP_O_ jtwc_sh SH221964 -14.1000 63.1000 -1 -12.8000 62.2000 2 9.90000 -14.1000 63.1000 TC 25 -14.0652 63.0532 7 -12.8000 62.2000 TC 25 9 255
1964064S13064 1964 17 SI MM HARRIET 1964-03-04 15:00:00 TS -14.0371 62.4685 main 852 802 P____P___PP_P_ SH221964 -14.3574 62.7299 -1 -13.0953 61.7178 2 -14.3574 62.7299 TC 30 -14.3382 62.6964 7 -13.0953 61.7178 TC 27 10 250
1964064S13064 1964 17 SI MM HARRIET 1964-03-04 18:00:00 TS -14.2000 61.9667 reunion main 802 754 O____O___OO_O_ jtwc_sh SH221964 -14.6000 62.3000 -1 -13.4000 61.3000 99 9.90000 -14.6000 62.3000 TC 35 -14.6000 62.3000 2 -13.4000 61.3000 TC 30 10 249
1964064S13064 1964 17 SI MM HARRIET 1964-03-04 21:00:00 TS -14.4007 61.4908 main 754 703 P____P___PP_P_ SH221964 -14.8500 61.8149 -1 -13.7273 60.9847 99 -14.8500 61.8149 TC 35 -14.8490 61.8548 2 -13.7273 60.9847 TC 30 10 240
1964064S13064 1964 17 SI MM HARRIET 1964-03-05 00:00:00 TS -14.6985 61.0733 reunion main 703 653 O____O___OP_O_ jtwc_sh SH221964 -15.1000 61.3000 -1 -14.1000 60.7000 99 9.90000 -15.1000 61.3000 TC 35 -15.0923 61.3667 2 -14.1000 60.7000 TC 30 10 233
1964064S13064 1964 17 SI MM HARRIET 1964-03-05 03:00:00 TS -15.0158 60.6439 main 648 598 P____P___PP_P_ SH221964 -15.3423 60.8073 -1 -14.5274 60.3798 99 -15.3423 60.8073 TC 35 -15.3394 60.8453 2 -14.5274 60.3798 TC 30 11 233
1964064S13064 1964 17 SI MM HARRIET 1964-03-05 06:00:00 TS -15.3600 60.1800 reunion main 588 535 O____O___OO_O_ jtwc_sh SH221964 -15.6000 60.3000 -1 -15.0000 60.0000 99 9.90000 -15.6000 60.3000 TC 35 -15.6000 60.3000 2 -15.0000 60.0000 TC 30 12 232
1964064S13064 1964 17 SI MM HARRIET 1964-03-05 09:00:00 TS -15.7402 59.6683 main 535 474 P____P___PP_P_ SH221964 -15.8924 59.7649 -1 -15.5075 59.5226 99 -15.8924 59.7649 TC 35 -15.9013 59.7668 2 -15.5075 59.5226 TC 30 13 233
1964064S13064 1964 17 SI MM HARRIET 1964-03-05 12:00:00 TS -16.1228 59.1220 reunion main 471 413 O____O___OP_O_ jtwc_sh SH221964 -16.2000 59.2000 -1 -16.0000 59.0000 2 9.90000 -16.2000 59.2000 TC 35 -16.2141 59.2099 2 -16.0000 59.0000 TC 30 13 234
1964064S13064 1964 17 SI MM HARRIET 1964-03-05 15:00:00 TS -16.4878 58.5795 main 413 370 P____P___PP_P_ SH221964 -16.5073 58.6223 -1 -16.4523 58.5149 2 -16.5073 58.6223 TC 35 -16.5198 58.6230 2 -16.4523 58.5149 TC 32 13 238
1964064S13064 1964 17 SI MM HARRIET 1964-03-05 18:00:00 TS -16.8000 58.0000 reunion main 370 346 O____O___OO_O_ jtwc_sh SH221964 -16.8000 58.0000 -1 -16.8000 58.0000 99 9.90000 -16.8000 58.0000 TC 35 -16.8000 58.0000 2 -16.8000 58.0000 TC 35 13 245
1964064S13064 1964 17 SI MM HARRIET 1964-03-05 21:00:00 TS -17.0325 57.3539 main 346 330 P____P___PP_P_ SH221964 -17.0724 57.3150 -1 -16.9799 57.4220 99 -17.0724 57.3150 TC 35 -17.0579 57.2957 2 -16.9799 57.4220 TC 37 13 252
1964064S13064 1964 17 SI MM HARRIET 1964-03-06 00:00:00 TS -17.2167 56.6726 reunion main 335 327 O____O___OP_O_ jtwc_sh SH221964 -17.3000 56.6000 -1 -17.1000 56.8000 99 9.90000 -17.3000 56.6000 TC 35 -17.2836 56.5631 2 -17.1000 56.8000 TC 40 14 254
1964064S13064 1964 17 SI MM HARRIET 1964-03-06 03:00:00 TS -17.4144 55.9869 main 340 340 P____P___PP_P_ SH221964 -17.4726 55.8624 -1 -17.3296 56.1803 99 -17.4726 55.8624 TC 50 -17.4674 55.8489 2 -17.3296 56.1803 TC 42 13 255
1964064S13064 1964 17 SI MM HARRIET 1964-03-06 06:00:00 TS -17.5600 55.3200 reunion main 363 363 O____O___OO_O_ jtwc_sh SH221964 -17.6000 55.2000 -1 -17.5000 55.5000 99 9.90000 -17.6000 55.2000 TC 65 -17.6000 55.2000 4 -17.5000 55.5000 TC 45 13 260
1964064S13064 1964 17 SI MM HARRIET 1964-03-06 09:00:00 TS -17.6297 54.6908 main 385 385 P____P___PP_P_ SH221964 -17.7296 54.7125 -1 -17.4955 54.6696 99 -17.7296 54.7125 TC 65 -17.6982 54.6898 4 -17.4955 54.6696 TC 45 11 267
1964064S13064 1964 17 SI MM HARRIET 1964-03-06 12:00:00 TS -17.6291 54.1294 reunion main 400 400 O____O___OP_O_ jtwc_sh SH221964 -17.8000 54.3000 -1 -17.4000 53.9000 3 9.90000 -17.8000 54.3000 TC 65 -17.7455 54.2471 4 -17.4000 53.9000 TC 45 10 273
1964064S13064 1964 17 SI MM HARRIET 1964-03-06 15:00:00 TS -17.5837 53.6712 main 413 370 P____P___PP_P_ SH221964 -17.7798 53.8574 -1 -17.3069 53.4051 3 -17.7798 53.8574 TC 65 -17.7452 53.8309 4 -17.3069 53.4051 TC 45 9 279
1964064S13064 1964 17 SI MM HARRIET 1964-03-06 18:00:00 TS -17.5000 53.2400 reunion main 360 318 O____O___OO_O_ jtwc_sh SH221964 -17.7000 53.4000 -1 -17.2000 53.0000 99 9.90000 -17.7000 53.4000 TC 65 -17.7000 53.4000 4 -17.2000 53.0000 TC 45 9 281
1964064S13064 1964 17 SI MM HARRIET 1964-03-06 21:00:00 TS -17.4119 52.7516 main 318 266 P____P___PP_P_ SH221964 -17.6149 52.9151 -1 -17.0999 52.5075 99 -17.6149 52.9151 TC 50 -17.6298 52.9127 4 -17.0999 52.5075 TC 45 10 282
1964064S13064 1964 17 SI MM HARRIET 1964-03-07 00:00:00 TS -17.3034 52.2405 reunion main 258 206 O____O___OP_O_ jtwc_sh SH221964 -17.5000 52.4000 -1 -17.0000 52.0000 99 9.90000 -17.5000 52.4000 TC 35 -17.5168 52.4024 4 -17.0000 52.0000 TC 45 10 283
1964064S13064 1964 17 SI MM HARRIET 1964-03-07 03:00:00 TS -17.1890 51.7193 main 206 152 P____P___PP_P_ SH221964 -17.3648 51.8651 -1 -16.9224 51.5002 99 -17.3648 51.8651 TC 35 -17.3703 51.8660 4 -16.9224 51.5002 TC 42 10 285
1964064S13064 1964 17 SI MM HARRIET 1964-03-07 06:00:00 TS -17.0400 51.1800 reunion main 150 95 O____O___OO_O_ jtwc_sh SH221964 -17.2000 51.3000 -1 -16.8000 51.0000 99 9.90000 -17.2000 51.3000 TC 35 -17.2000 51.3000 2 -16.8000 51.0000 TC 40 11 289
1964064S13064 1964 17 SI MM HARRIET 1964-03-07 09:00:00 TS -16.8236 50.6290 main 85 31 P____P___PP_P_ SH221964 -17.0073 50.7150 -1 -16.5574 50.4998 99 -17.0073 50.7150 TC 30 -16.9886 50.7151 2 -16.5574 50.4998 TC 40 12 293
1964064S13064 1964 17 SI MM HARRIET 1964-03-07 12:00:00 TS -16.5924 50.0602 reunion main 31 0 O____O___OP_O_ jtwc_sh SH221964 -16.8000 50.1000 -1 -16.3000 50.0000 3 9.90000 -16.8000 50.1000 TC 25 -16.7618 50.1012 2 -16.3000 50.0000 TC 40 12 292
1964064S13064 1964 17 SI MM HARRIET 1964-03-07 15:00:00 TS -16.3896 49.4844 main 0 0 P____P___PP_P_ SH221964 -16.5772 49.4724 -1 -16.1198 49.5076 3 -16.5772 49.4724 TC 25 -16.5541 49.4618 2 -16.1198 49.5076 TC 37 12 287
1964064S13064 1964 17 SI MM HARRIET 1964-03-07 18:00:00 TS -16.2400 48.8800 reunion main 0 0 O____O___OO_O_ jtwc_sh SH221964 -16.4000 48.8000 -1 -16.0000 49.0000 99 9.90000 -16.4000 48.8000 TC 25 -16.4000 48.8000 7 -16.0000 49.0000 TC 35 12 281
1964064S13064 1964 17 SI MM HARRIET 1964-03-07 21:00:00 TS -16.1552 48.2129 main 0 0 P____P___PP_P_ SH221964 -16.3125 48.0501 -1 -15.9199 48.4575 99 -16.3125 48.0501 TC 25 -16.3110 48.0491 7 -15.9199 48.4575 TC 32 13 275
1964064S13064 1964 17 SI MM HARRIET 1964-03-08 00:00:00 TS -16.1363 47.5376 reunion main 0 0 O____O___OP_O_ jtwc_sh SH221964 -16.3000 47.3000 -1 -15.9000 47.9000 99 9.90000 -16.3000 47.3000 TC 25 -16.2816 47.2882 7 -15.9000 47.9000 TC 30 13 270
1964064S13064 1964 17 SI MM HARRIET 1964-03-08 03:00:00 TS -16.1612 46.8897 main 0 0 P____P___PP_P_ SH221964 -16.3125 46.5826 -1 -15.9349 47.3501 99 -16.3125 46.5826 TC 25 -16.3111 46.5832 7 -15.9349 47.3501 TC 30 12 265
1964064S13064 1964 17 SI MM HARRIET 1964-03-08 06:00:00 TS -16.2400 46.3200 reunion main 0 0 O____O___OO_O_ jtwc_sh SH221964 -16.4000 46.0000 -1 -16.0000 46.8000 99 9.90000 -16.4000 46.0000 TC 25 -16.4000 46.0000 7 -16.0000 46.8000 TC 30 10 258
1964064S13064 1964 17 SI MM HARRIET 1964-03-08 09:00:00 TS -16.3609 45.8818 main 0 0 P____P___PP_P_ SH221964 -16.5772 45.6325 -1 -16.0423 46.2574 99 -16.5772 45.6325 TC 25 -16.5654 45.6291 7 -16.0423 46.2574 TC 30 8 250
1964064S13064 1964 17 SI MM HARRIET 1964-03-08 12:00:00 TS -16.5166 45.5161 reunion main 0 0 O____O___OP_O_ jtwc_sh SH221964 -16.8000 45.4000 -1 -16.1000 45.7000 6 9.90000 -16.8000 45.4000 TC 25 -16.7832 45.3804 7 -16.1000 45.7000 TC 30 8 245
1964064S13064 1964 17 SI MM HARRIET 1964-03-08 15:00:00 TS -16.6819 45.1552 main 0 0 P____P___PP_P_ SH221964 -17.0224 45.2000 -1 -16.1775 45.0924 6 -17.0224 45.2000 TC 25 -17.0095 45.1915 7 -16.1775 45.0924 TC 27 8 245
1964064S13064 1964 17 SI MM HARRIET 1964-03-08 18:00:00 TS -16.8400 44.8000 reunion main 0 0 O____O___OO_O_ jtwc_sh SH221964 -17.2000 45.0000 -1 -16.3000 44.5000 99 9.90000 -17.2000 45.0000 TC 25 -17.2000 45.0000 7 -16.3000 44.5000 TC 25 8 248
1964064S13064 1964 17 SI MM HARRIET 1964-03-08 21:00:00 TS -16.9661 44.4236 main 0 0 P____P___PP_P_ SH221964 -17.2725 44.7149 -1 -16.4923 43.9850 99 -17.2725 44.7149 TC 25 -17.3012 44.7182 7 -16.4923 43.9850 TC 27 8 252
1964064S13064 1964 17 SI MM HARRIET 1964-03-09 00:00:00 TS -17.0720 44.0444 reunion main 15 15 O____O___OP_O_ jtwc_sh SH221964 -17.3000 44.4000 -1 -16.7000 43.5000 99 9.90000 -17.3000 44.4000 TC 25 -17.3599 44.4222 7 -16.7000 43.5000 TC 30 8 255
1964064S13064 1964 17 SI MM HARRIET 1964-03-09 03:00:00 TS -17.1637 43.6600 main 38 38 P____P___PP_P_ SH221964 -17.3575 44.1000 -1 -16.8574 42.9924 99 -17.3575 44.1000 TC 30 -17.3886 44.1151 7 -16.8574 42.9924 TC 32 8 257
1964064S13064 1964 17 SI MM HARRIET 1964-03-09 06:00:00 TS -17.2400 43.2800 reunion main 71 71 O____O___OO_O_ jtwc_sh SH221964 -17.4000 43.8000 -1 -17.0000 42.5000 99 9.90000 -17.4000 43.8000 TC 35 -17.4000 43.8000 2 -17.0000 42.5000 TC 35 7 259
1964064S13064 1964 17 SI MM HARRIET 1964-03-09 09:00:00 TS -17.3074 42.9052 main 108 108 P____P___PP_P_ SH221964 -17.4074 43.5075 -1 -17.1500 42.0125 99 -17.4074 43.5075 TC 35 -17.4223 43.4862 2 -17.1500 42.0125 TC 35 7 260
1964064S13064 1964 17 SI MM HARRIET 1964-03-09 12:00:00 TS -17.3660 42.5530 reunion main 138 138 O____O___OP_O_ jtwc_sh SH221964 -17.4000 43.2000 -1 -17.3000 41.6000 2 9.90000 -17.4000 43.2000 TC 35 -17.4298 43.1650 2 -17.3000 41.6000 TC 35 7 259
1964064S13064 1964 17 SI MM HARRIET 1964-03-09 15:00:00 TS -17.4304 42.2323 main 180 180 P____P___PP_P_ SH221964 -17.4075 42.8575 -1 -17.4574 41.3049 2 -17.4075 42.8575 TC 35 -17.4223 42.8363 2 -17.4574 41.3049 TC 32 6 259
1964064S13064 1964 17 SI MM HARRIET 1964-03-09 18:00:00 TS -17.4800 41.9400 reunion main 212 212 O____O___OO_O_ jtwc_sh SH221964 -17.4000 42.5000 -1 -17.6000 41.1000 99 9.90000 -17.4000 42.5000 TC 35 -17.4000 42.5000 2 -17.6000 41.1000 TC 30 5 263
1964064S13064 1964 17 SI MM HARRIET 1964-03-09 21:00:00 TS -17.4961 41.6735 main 231 203 P____P___PP_P_ SH221964 -17.3574 42.1500 -1 -17.7149 40.9574 99 -17.3574 42.1500 TC 35 -17.3359 42.1527 2 -17.7149 40.9574 TC 30 5 269
1964064S13064 1964 17 SI MM HARRIET 1964-03-10 00:00:00 TS -17.4925 41.3999 reunion main 203 177 O____O___OP_O_ jtwc_sh SH221964 -17.3000 41.8000 -1 -17.8000 40.8000 99 9.90000 -17.3000 41.8000 TC 35 -17.2624 41.7993 2 -17.8000 40.8000 TC 30 6 273
1964064S13064 1964 17 SI MM HARRIET 1964-03-10 03:00:00 TS -17.4696 41.0692 main 177 154 P____P___PP_P_ SH221964 -17.2274 41.4499 -1 -17.8426 40.4999 99 -17.2274 41.4499 TC 35 -17.2077 41.4464 2 -17.8426 40.4999 TC 30 6 271
1964064S13064 1964 17 SI MM HARRIET 1964-03-10 06:00:00 TS -17.4800 40.7400 reunion main 147 134 O____O___OO_O_ jtwc_sh SH221964 -17.2000 41.1000 -1 -17.9000 40.2000 99 9.90000 -17.2000 41.1000 TC 35 -17.2000 41.1000 2 -17.9000 40.2000 TC 30 6 260
1964064S13064 1964 17 SI MM HARRIET 1964-03-10 09:00:00 TS -17.5706 40.4576 main 143 134 P____P___PP_P_ SH221964 -17.2700 40.7426 -1 -18.0274 40.0275 99 -17.2700 40.7426 TC 35 -17.2584 40.7478 2 -18.0274 40.0275 TC 30 6 246
1964064S13064 1964 17 SI MM HARRIET 1964-03-10 12:00:00 TS -17.7135 40.2011 reunion main 138 130 O____O___OP_O_ jtwc_sh SH221964 -17.4000 40.4000 -1 -18.2000 39.9000 2 9.90000 -17.4000 40.4000 TC 35 -17.3675 40.4053 2 -18.2000 39.9000 TC 30 6 238
1964064S13064 1964 17 SI MM HARRIET 1964-03-10 15:00:00 TS -17.8776 39.9480 main 131 128 P____P___PP_P_ SH221964 -17.5425 40.0775 -1 -18.3925 39.7500 2 -17.5425 40.0775 TC 35 -17.5179 40.0852 2 -18.3925 39.7500 TC 30 6 233
1964064S13064 1964 17 SI MM HARRIET 1964-03-10 18:00:00 TS -18.0600 39.7200 reunion main 138 134 O____O___OO_O_ jtwc_sh SH221964 -17.7000 39.8000 -1 -18.6000 39.6000 99 9.90000 -17.7000 39.8000 TC 35 -17.7000 39.8000 2 -18.6000 39.6000 TC 30 5 230
1964064S13064 1964 17 SI MM HARRIET 1964-03-10 21:00:00 TS -18.2161 39.5177 main 140 140 P____P___PP_P_ SH221964 -17.8274 39.5849 -1 -18.7850 39.4275 99 -17.8274 39.5849 TC 35 -17.8554 39.5636 2 -18.7850 39.4275 TC 32 5 225
1964064S13064 1964 17 SI MM HARRIET 1964-03-11 00:00:00 TS -18.4089 39.3523 reunion main 159 158 O____O___OP_O_ jtwc_sh SH221964 -18.0000 39.4000 -1 -19.0000 39.3000 99 9.90000 -18.0000 39.4000 TC 35 -18.0447 39.3618 2 -19.0000 39.3000 TC 35 5 211
1964064S13064 1964 17 SI MM HARRIET 1964-03-11 03:00:00 TS -18.6793 39.2268 main 186 186 P____P___PP_P_ SH221964 -18.2550 39.1999 -1 -19.3000 39.2774 99 -18.2550 39.1999 TC 50 -18.2867 39.1791 2 -19.3000 39.2774 TC 37 6 200
1964064S13064 1964 17 SI MM HARRIET 1964-03-11 06:00:00 TS -19.0000 39.1200 reunion main 216 216 O____O___OO_O_ jtwc_sh SH221964 -18.6000 39.0000 -1 -19.6000 39.3000 99 9.90000 -18.6000 39.0000 TC 65 -18.6000 39.0000 4 -19.6000 39.3000 TC 40 7 198
1964064S13064 1964 17 SI MM HARRIET 1964-03-11 09:00:00 TS -19.3398 38.9976 main 243 243 P____P___PP_P_ SH221964 -19.0200 38.7999 -1 -19.8300 39.3000 99 -19.0200 38.7999 TC 65 -18.9991 38.7881 4 -19.8300 39.3000 TC 42 7 198
1964064S13064 1964 17 SI MM HARRIET 1964-03-11 12:00:00 TS -19.6935 38.8756 reunion main 268 268 O____O___OP_O_ jtwc_sh SH221964 -19.5000 38.6000 -1 -20.0000 39.3000 3 9.90000 -19.5000 38.6000 TC 65 -19.4676 38.5779 4 -20.0000 39.3000 TC 45 7 198
1964064S13064 1964 17 SI MM HARRIET 1964-03-11 15:00:00 TS -20.0325 38.7527 main 283 283 P____P___PP_P_ SH221964 -19.9925 38.3925 -1 -20.1000 39.3000 3 -19.9925 38.3925 TC 65 -19.9773 38.3787 4 -20.1000 39.3000 TC 45 7 198
1964064S13064 1964 17 SI MM HARRIET 1964-03-11 18:00:00 TS -20.3800 38.6400 reunion main 293 293 O____O___OO_O_ jtwc_sh SH221964 -20.5000 38.2000 -1 -20.2000 39.3000 99 9.90000 -20.5000 38.2000 TC 65 -20.5000 38.2000 4 -20.2000 39.3000 TC 45 8 196
1964064S13064 1964 17 SI MM HARRIET 1964-03-11 21:00:00 TS -20.7596 38.5374 main 313 313 P____P___PP_P_ SH221964 -21.0000 38.0349 -1 -20.3925 39.3000 99 -21.0000 38.0349 TC 65 -21.0130 38.0173 4 -20.3925 39.3000 TC 45 8 193
1964064S13064 1964 17 SI MM HARRIET 1964-03-12 00:00:00 TS -21.1460 38.4521 reunion main 333 309 O____O___OP_O_ jtwc_sh SH221964 -21.5000 37.9000 -1 -20.6000 39.3000 99 9.90000 -21.5000 37.9000 TC 65 -21.5299 37.8607 4 -20.6000 39.3000 TC 45 8 191
1964064S13064 1964 17 SI MM HARRIET 1964-03-12 03:00:00 TS -21.5124 38.3778 main 309 292 P____P___PP_P_ SH221964 -22.0075 37.7775 -1 -20.7575 39.2925 99 -22.0075 37.7775 TC 65 -22.0318 37.7487 4 -20.7575 39.2925 TC 45 7 189
1964064S13064 1964 17 SI MM HARRIET 1964-03-12 06:00:00 TS -21.8600 38.3400 reunion main 290 287 O____O___OO_O_ jtwc_sh SH221964 -22.5000 37.7000 -1 -20.9000 39.3000 99 9.90000 -22.5000 37.7000 TC 65 -22.5000 37.7000 4 -20.9000 39.3000 TC 45 7 184
1964064S13064 1964 17 SI MM HARRIET 1964-03-12 09:00:00 TS -22.1891 38.3385 main 287 285 P____P___PP_P_ SH221964 -22.9799 37.6551 -1 -21.0275 39.3500 99 -22.9799 37.6551 TC 65 -22.9307 37.6824 4 -21.0275 39.3500 TC 45 7 176
1964064S13064 1964 17 SI MM HARRIET 1964-03-12 12:00:00 TS -22.5048 38.3870 reunion main 290 287 O____O___OP_O_ jtwc_sh SH221964 -23.4000 37.7000 -1 -21.2000 39.4000 3 9.90000 -23.4000 37.7000 TC 65 -23.3241 37.7351 4 -21.2000 39.4000 TC 45 6 169
1964064S13064 1964 17 SI MM HARRIET 1964-03-12 15:00:00 TS -22.8101 38.4672 main 297 296 P____P___PP_P_ SH221964 -23.7299 37.8475 -1 -21.4550 39.3852 3 -23.7299 37.8475 TC 65 -23.6805 37.8703 4 -21.4550 39.3852 TC 42 7 161
1964064S13064 1964 17 SI MM HARRIET 1964-03-12 18:00:00 TS -23.1200 38.6200 reunion main 307 307 O____O___OO_O_ jtwc_sh SH221964 -24.0000 38.1000 -1 -21.8000 39.4000 99 9.90000 -24.0000 38.1000 TC 65 -24.0000 38.1000 4 -21.8000 39.4000 TC 40 7 151
1964064S13064 1964 17 SI MM HARRIET 1964-03-12 21:00:00 TS -23.4580 38.8582 main 343 343 P____P___PP_P_ SH221964 -24.2574 38.4052 -1 -22.2425 39.5347 99 -24.2574 38.4052 TC 65 -24.2901 38.4113 4 -22.2425 39.5347 TC 37 8 143
1964064S13064 1964 17 SI MM HARRIET 1964-03-13 00:00:00 TS -23.7890 39.1630 reunion main 376 375 O____O___OP_O_ jtwc_sh SH221964 -24.5000 38.8000 -1 -22.7000 39.7000 99 9.90000 -24.5000 38.8000 TC 65 -24.5450 38.8152 4 -22.7000 39.7000 TC 35 9 137
1964064S13064 1964 17 SI MM HARRIET 1964-03-13 03:00:00 TS -24.0815 39.4914 main 405 391 P____P___PP_P_ SH221964 -24.7500 39.2776 -1 -23.0650 39.8077 99 -24.7500 39.2776 TC 65 -24.7774 39.2866 4 -23.0650 39.8077 TC 35 8 133
1964064S13064 1964 17 SI MM HARRIET 1964-03-13 06:00:00 TS -24.3600 39.8400 reunion main 393 368 O____O___OO_O_ jtwc_sh SH221964 -25.0000 39.8000 -1 -23.4000 39.9000 99 9.90000 -25.0000 39.8000 TC 65 -25.0000 39.8000 4 -23.4000 39.9000 TC 35 8 133
1964064S13064 1964 17 SI MM HARRIET 1964-03-13 09:00:00 TS -24.6409 40.1493 main 368 334 P____P___PP_P_ SH221964 -25.2572 40.2852 -1 -23.7272 39.9408 99 -25.2572 40.2852 TC 65 -25.2357 40.2943 4 -23.7272 39.9408 TC 32 8 133
1964064S13064 1964 17 SI MM HARRIET 1964-03-13 12:00:00 MX -24.9328 40.5252 reunion main 334 290 O____O___OP_O_ jtwc_sh SH221964 -25.5000 40.8000 -1 -24.1000 40.1000 5 9.90000 -25.5000 40.8000 TC 65 -25.4640 40.8259 4 -24.1000 40.1000 EX 30 10 127
1964064S13064 1964 17 SI MM HARRIET 1964-03-13 15:00:00 MX -25.2570 41.0398 main 292 243 P____P___PP_P_ SH221964 -25.7072 41.3703 -1 -24.5927 40.5320 5 -25.7072 41.3703 TC 65 -25.6854 41.3945 4 -24.5927 40.5320 EX 30 12 123
1964064S13064 1964 17 SI MM HARRIET 1964-03-13 18:00:00 MX -25.5800 41.6400 reunion main 247 201 O____O___OO_O_ jtwc_sh SH221964 -25.9000 42.0000 -1 -25.1000 41.1000 99 9.90000 -25.9000 42.0000 TC 65 -25.9000 42.0000 4 -25.1000 41.1000 EX 30 13 119
1964064S13064 1964 17 SI MM HARRIET 1964-03-13 21:00:00 MX -25.8688 42.2624 main 197 165 P____P___PP_P_ SH221964 -26.1000 42.6926 -1 -25.5223 41.6354 99 -26.1000 42.6926 TC 65 -26.0994 42.6560 4 -25.5223 41.6354 EX 30 13 116
1964064S13064 1964 17 SI MM HARRIET 1964-03-14 00:00:00 MX -26.1386 42.9087 reunion main 165 149 O____O___OP_O_ jtwc_sh SH221964 -26.3000 43.4000 -1 -25.9000 42.2000 99 9.90000 -26.3000 43.4000 TC 65 -26.2930 43.3435 4 -25.9000 42.2000 EX 30 13 115
1964064S13064 1964 17 SI MM HARRIET 1964-03-14 03:00:00 MX -26.4038 43.5471 main 152 141 P____P___PP_P_ SH221964 -26.4923 44.0728 -1 -26.2721 42.7778 99 -26.4923 44.0728 TC 65 -26.4900 44.0342 4 -26.2721 42.7778 EX 30 13 115
1964064S13064 1964 17 SI MM HARRIET 1964-03-14 06:00:00 MX -26.6600 44.1800 reunion main 156 143 O____O___OO_O_ jtwc_sh SH221964 -26.7000 44.7000 -1 -26.6000 43.4000 99 9.90000 -26.7000 44.7000 TC 65 -26.7000 44.7000 4 -26.6000 43.4000 EX 30 12 114
1964064S13064 1964 17 SI MM HARRIET 1964-03-14 09:00:00 MX -26.9012 44.7984 main 150 148 P____P___PP_P_ SH221964 -26.9420 45.2578 -1 -26.8499 44.0857 99 -26.9420 45.2578 TC 65 -26.9221 45.3048 4 -26.8499 44.0857 EX 30 12 114
1964064S13064 1964 17 SI MM HARRIET 1964-03-14 12:00:00 MX -27.1522 45.4163 reunion main 178 178 O____O___OP_O_ jtwc_sh SH221964 -27.2000 45.8000 -1 -27.1000 44.8000 5 9.90000 -27.2000 45.8000 TC 65 -27.1608 45.8816 4 -27.1000 44.8000 EX 30 12 116
1964064S13064 1964 17 SI MM HARRIET 1964-03-14 15:00:00 MX -27.4407 46.0545 main 209 209 P____P___PP_P_ SH221964 -27.4424 46.4003 -1 -27.4499 45.5147 5 -27.4424 46.4003 TC 65 -27.4191 46.4425 4 -27.4499 45.5147 EX 30 13 118
1964064S13064 1964 17 SI MM HARRIET 1964-03-14 18:00:00 MX -27.7400 46.6800 reunion main 263 263 O____O___OO_O_ jtwc_sh SH221964 -27.7000 47.0000 -1 -27.8000 46.2000 99 9.90000 -27.7000 47.0000 TC 65 -27.7000 47.0000 4 -27.8000 46.2000 EX 30 12 118
1964064S13064 1964 17 SI MM HARRIET 1964-03-14 21:00:00 MX -28.0122 47.2443 main 315 315 P____P___PP_P_ SH221964 -27.9846 47.5504 -1 -28.0491 46.7862 99 -27.9846 47.5504 TC 65 -27.9937 47.5481 4 -28.0491 46.7862 EX 30 12 119
1964064S13064 1964 17 SI MM HARRIET 1964-03-15 00:00:00 MX -28.3020 47.8200 reunion main 360 360 O____O___OP_O_ jtwc_sh SH221964 -28.3000 48.1000 -1 -28.3000 47.4000 99 9.90000 -28.3000 48.1000 TC 65 -28.3101 48.1000 4 -28.3000 47.4000 EX 30 12 120
1964064S13064 1964 17 SI MM HARRIET 1964-03-15 03:00:00 MX -28.6401 48.4686 main 415 415 P____P___PP_P_ SH221964 -28.6421 48.6779 -1 -28.6347 48.1552 99 -28.6421 48.6779 TC 65 -28.6466 48.6767 4 -28.6347 48.1552 EX 30 14 120
1964064S13064 1964 17 SI MM HARRIET 1964-03-15 06:00:00 MX -29.0000 49.1800 reunion main 486 486 O____O___OO_O_ jtwc_sh SH221964 -29.0000 49.3000 -1 -29.0000 49.0000 99 9.90000 -29.0000 49.3000 TC 65 -29.0000 49.3000 4 -29.0000 49.0000 EX 30 15 119
1964064S13064 1964 17 SI MM HARRIET 1964-03-15 09:00:00 MX -29.3567 49.9513 main 564 564 P____P___PP_P_ SH221964 -29.3421 49.9707 -1 -29.3650 49.8999 99 -29.3421 49.9707 TC 65 -29.3694 50.0154 4 -29.3650 49.8999 EX 30 15 117
1964064S13064 1964 17 SI MM HARRIET 1964-03-15 12:00:00 MX -29.7102 50.7554 reunion main 635 635 O____O___OP_O_ jtwc_sh SH221964 -29.7000 50.7000 -1 -29.7000 50.8000 5 9.90000 -29.7000 50.7000 TC 65 -29.7509 50.7768 4 -29.7000 50.8000 EX 30 16 116
1964064S13064 1964 17 SI MM HARRIET 1964-03-15 15:00:00 MX -30.0521 51.5593 main 718 718 P____P___PP_P_ SH221964 -30.1077 51.5072 -1 -29.9567 51.6161 5 -30.1077 51.5072 TC 65 -30.1318 51.5500 4 -29.9567 51.6161 EX 30 15 116
1964064S13064 1964 17 SI MM HARRIET 1964-03-15 18:00:00 MX -30.3800 52.3400 reunion main 788 788 O____O___OO_O_ jtwc_sh SH221964 -30.5000 52.3000 -1 -30.2000 52.4000 99 9.90000 -30.5000 52.3000 TC 65 -30.5000 52.3000 4 -30.2000 52.4000 EX 30 14 116
1964064S13064 1964 17 SI MM HARRIET 1964-03-15 21:00:00 MX -30.6739 53.0534 main 865 865 P____P___PP_P_ SH221964 -30.8068 52.9736 -1 -30.4842 53.1857 99 -30.8068 52.9736 TC 50 -30.7876 52.9484 4 -30.4842 53.1857 EX 30 14 116
1964064S13064 1964 17 SI MM HARRIET 1964-03-16 00:00:00 MX -30.9741 53.7544 reunion main 936 936 O____O___OP_O_ jtwc_sh SH221964 -31.1000 53.6000 -1 -30.8000 54.0000 99 9.90000 -31.1000 53.6000 TC 35 -31.0707 53.5719 4 -30.8000 54.0000 EX 30 14 117
1964064S13064 1964 17 SI MM HARRIET 1964-03-16 03:00:00 MX -31.3036 54.5022 main 1008 1008 P____P___PP_P_ SH221964 -31.4117 54.2215 -1 -31.1505 54.9296 99 -31.4117 54.2215 TC 35 -31.3936 54.2090 4 -31.1505 54.9296 EX 30 15 119
1964064S13064 1964 17 SI MM HARRIET 1964-03-16 06:00:00 MX -31.6800 55.2600 reunion main 1094 1094 O____O___OO_O_ jtwc_sh SH221964 -31.8000 54.9000 -1 -31.5000 55.8000 99 9.90000 -31.8000 54.9000 TC 35 -31.8000 54.9000 2 -31.5000 55.8000 EX 30 15 122
1964064S13064 1964 17 SI MM HARRIET 1964-03-16 09:00:00 MX -32.0970 56.0028 main 1174 1174 P____P___PP_P_ SH221964 -32.2974 55.7132 -1 -31.7840 56.4464 99 -32.2974 55.7132 TC 30 -32.3222 55.6948 2 -31.7840 56.4464 EX 30 16 126
1964064S13064 1964 17 SI MM HARRIET 1964-03-16 12:00:00 MX -32.5859 56.7509 reunion main 1256 1256 O____O___OP_O_ jtwc_sh SH221964 -32.9000 56.6000 -1 -32.1000 57.0000 5 9.90000 -32.9000 56.6000 TC 25 -32.9293 56.5546 2 -32.1000 57.0000 EX 30 17 130
1964064S13064 1964 17 SI MM HARRIET 1964-03-16 15:00:00 MX -33.1578 57.5181 main 1330 1330 P____P___PP_P_ SH221964 -33.5769 57.4858 -1 -32.5194 57.5782 5 -33.5769 57.4858 TC 25 -33.5967 57.4623 2 -32.5194 57.5782 EX 30 18 132
1964064S13064 1964 17 SI MM HARRIET 1964-03-16 18:00:00 MX -33.7800 58.3200 reunion main 1409 1409 O____O___OO_O_ jtwc_sh SH221964 -34.3000 58.4000 -1 -33.0000 58.2000 99 9.90000 -34.3000 58.4000 TC 25 -34.3000 58.4000 7 -33.0000 58.2000 EX 30 19 132
1964064S13064 1964 17 SI MM HARRIET 1964-03-16 21:00:00 MX -34.3885 59.1796 main 1493 1493 P____P___PP_P_ SH221964 -34.9918 59.3369 -1 -33.4701 58.9358 99 -34.9918 59.3369 TC 25 -35.0189 59.3524 7 -33.4701 58.9358 EX 30 18 129
1964064S13064 1964 17 SI MM HARRIET 1964-03-17 00:00:00 MX -34.9080 60.0209 reunion main 1567 1567 O____O___OP_O_ jtwc_sh SH221964 -35.7000 60.3000 -1 -34.0000 59.7000 99 9.90000 -35.7000 60.3000 TC 25 -35.7454 60.3185 7 -34.0000 59.7000 EX 30 17 128
1964064S13064 1964 17 SI MM HARRIET 1964-03-17 03:00:00 MX -35.4050 60.7830 main 1630 1555 P____P___PP_P_ SH221964 -36.4417 61.2882 -1 -34.6194 60.4011 99 -36.4417 61.2882 TC 25 -36.4743 61.3005 7 -34.6194 60.4011 EX 30 16 130
1964064S13064 1964 17 SI MM HARRIET 1964-03-17 06:00:00 MX -35.9333 61.5000 reunion main 1555 1535 O____O___OO_O_ jtwc_sh SH221964 -37.2000 62.3000 -1 -35.3000 61.1000 99 9.90000 -37.2000 62.3000 TC 25 -37.2000 62.3000 7 -35.3000 61.1000 EX 30 10 125
1964064S13064 1964 17 SI MM HARRIET 1964-03-17 09:00:00 ET -35.9986 61.8347 main 1535 1441 _____P______P_ SH221964 -1 -35.9986 61.8347 99 TC 7 -35.9986 61.8347 EX 30 12 131
1964064S13064 1964 17 SI MM HARRIET 1964-03-17 12:00:00 ET -36.7000 62.6000 reunion main 1438 _____O______O_ -1 -36.7000 62.6000 5 9.90000 7 -36.7000 62.6000 EX 30 19 139

About IBTrACS Database

This database is a web-friendly format of International Best Track Archive for Climate Stewardship (IBTrACS), a global best track data archive curated by NOAA dating back to 1842.

Updated: 2021-11-26